Time;durP1;ratioP1;P1;durP2;ratioP2;P2;SDS_P1;SDS_P2;PMS_P1;PMS_P2;Temp;Humidity;BMP_temperature;BMP_pressure;BME280_temperature;BME280_humidity;BME280_pressure;Samples;Min_cycle;Max_cycle;Signal;HPM_P1;HPM_P2
2023/05/21 00:00:19;;;;;;;8.68;7.68;;;15.10;81.70;;;;;;4975709;28;20208;-94
2023/05/21 00:02:46;;;;;;;12.40;7.70;;;15.00;81.70;;;;;;4991988;28;20295;-93
2023/05/21 00:05:15;;;;;;;8.23;7.43;;;14.90;81.90;;;;;;4992801;28;20204;-93
2023/05/21 00:07:42;;;;;;;9.10;7.60;;;14.90;82.50;;;;;;4956044;28;20227;-93
2023/05/21 00:10:11;;;;;;;8.52;7.72;;;14.90;82.30;;;;;;4977019;28;20216;-93
2023/05/21 00:12:39;;;;;;;8.77;7.65;;;14.80;82.60;;;;;;4971770;28;20208;-93
2023/05/21 00:15:06;;;;;;;9.80;6.95;;;14.80;83.10;;;;;;4984680;28;20227;-93
2023/05/21 00:17:35;;;;;;;8.27;7.40;;;14.70;82.60;;;;;;4990907;28;20246;-92
2023/05/21 00:20:04;;;;;;;11.85;7.80;;;14.70;82.30;;;;;;4975838;28;20215;-93
2023/05/21 00:27:54;;;;;;;9.55;7.45;;;14.60;82.20;;;;;;4990359;28;20219;-93
2023/05/21 00:30:22;;;;;;;8.05;7.10;;;14.60;81.90;;;;;;4991505;28;20208;-93
2023/05/21 00:32:49;;;;;;;9.25;7.13;;;14.60;80.70;;;;;;4991578;28;20291;-93
2023/05/21 00:35:16;;;;;;;9.30;7.43;;;14.60;80.90;;;;;;4970238;28;20202;-93
2023/05/21 00:37:43;;;;;;;8.02;6.82;;;14.50;82.10;;;;;;4982567;28;20234;-93
2023/05/21 00:40:11;;;;;;;9.57;7.53;;;14.50;80.10;;;;;;4994032;28;20211;-93
2023/05/21 00:42:40;;;;;;;7.78;6.93;;;14.50;79.80;;;;;;4991505;28;20309;-93
2023/05/21 00:45:09;;;;;;;7.28;6.53;;;14.50;79.70;;;;;;4989192;28;20203;-93
2023/05/21 00:47:36;;;;;;;7.78;6.97;;;14.50;80.20;;;;;;4970528;28;21475;-92
2023/05/21 00:50:05;;;;;;;8.40;6.60;;;14.50;79.80;;;;;;4979098;28;20277;-93
2023/05/21 00:52:40;;;;;;;8.85;7.18;;;14.40;80.00;;;;;;4957367;28;20211;-93
2023/05/21 00:55:17;;;;;;;7.30;6.60;;;14.40;80.60;;;;;;4959422;28;20200;-93
2023/05/21 01:00:28;;;;;;;8.55;7.03;;;14.40;82.00;;;;;;4991383;28;20200;-93
2023/05/21 01:02:57;;;;;;;8.88;6.88;;;14.40;81.20;;;;;;4977639;28;20553;-92
2023/05/21 01:05:25;;;;;;;7.60;6.70;;;14.30;81.40;;;;;;4957656;28;20204;-92
2023/05/21 01:07:52;;;;;;;8.45;6.95;;;14.30;81.40;;;;;;4994131;28;20223;-93
2023/05/21 01:10:20;;;;;;;9.13;7.38;;;14.20;80.60;;;;;;4992078;28;20208;-94
2023/05/21 01:15:40;;;;;;;9.15;6.85;;;14.20;82.30;;;;;;4969326;28;20232;-93
2023/05/21 01:20:54;;;;;;;7.57;6.57;;;14.20;80.70;;;;;;4990575;28;20313;-93
2023/05/21 01:26:06;;;;;;;8.60;6.88;;;14.20;81.20;;;;;;4988123;28;20253;-94
2023/05/21 01:31:24;;;;;;;8.80;6.50;;;14.10;78.80;;;;;;4988500;28;20300;-93
2023/05/21 01:33:55;;;;;;;11.35;6.65;;;14.10;79.30;;;;;;4987962;28;20200;-93
2023/05/21 01:36:25;;;;;;;9.00;6.80;;;14.10;79.00;;;;;;4991125;28;20302;-93
2023/05/21 01:39:02;;;;;;;7.55;6.70;;;14.10;79.20;;;;;;4985431;28;20299;-93
2023/05/21 01:41:33;;;;;;;7.50;6.70;;;14.00;79.40;;;;;;4987760;28;20222;-93
2023/05/21 01:44:02;;;;;;;9.07;6.95;;;14.00;79.10;;;;;;4975426;28;20208;-93
2023/05/21 01:46:36;;;;;;;8.60;6.70;;;14.00;79.50;;;;;;4971286;28;20200;-94
2023/05/21 01:49:07;;;;;;;9.95;6.75;;;13.90;79.40;;;;;;4991982;28;20610;-94
2023/05/21 01:51:35;;;;;;;7.88;6.88;;;13.90;80.00;;;;;;4993565;28;20291;-92
2023/05/21 01:56:48;;;;;;;8.45;6.40;;;14.00;78.60;;;;;;4989165;28;20208;-93
2023/05/21 02:02:07;;;;;;;7.18;6.28;;;13.90;79.30;;;;;;4991868;28;20196;-94
2023/05/21 02:13:05;;;;;;;8.88;6.60;;;13.70;79.80;;;;;;4991823;28;20283;-92
2023/05/21 02:15:33;;;;;;;7.78;6.43;;;13.70;80.10;;;;;;4977414;28;20196;-93
2023/05/21 02:18:02;;;;;;;7.07;6.38;;;13.70;79.80;;;;;;4975893;28;20310;-94
2023/05/21 02:29:07;;;;;;;7.78;6.78;;;13.80;78.60;;;;;;4990429;28;20228;-93
2023/05/21 02:32:07;;;;;;;7.80;6.30;;;13.80;78.30;;;;;;4978978;28;20200;-93
2023/05/21 02:34:41;;;;;;;7.47;6.47;;;13.80;78.80;;;;;;4997149;28;20195;-92
2023/05/21 02:37:14;;;;;;;8.65;6.40;;;13.70;78.20;;;;;;4996996;28;20211;-93
2023/05/21 02:39:45;;;;;;;7.68;6.88;;;13.70;76.40;;;;;;4979819;28;20204;-93
2023/05/21 02:42:15;;;;;;;7.22;6.53;;;13.70;76.40;;;;;;4979254;28;20279;-93
2023/05/21 02:44:55;;;;;;;9.38;6.55;;;13.70;78.00;;;;;;4995024;28;20238;-93
2023/05/21 02:47:24;;;;;;;8.90;6.72;;;13.70;77.20;;;;;;4967070;28;20219;-93
2023/05/21 02:49:55;;;;;;;6.85;6.15;;;13.60;77.90;;;;;;4975774;28;20204;-94
2023/05/21 02:55:10;;;;;;;7.30;6.10;;;13.60;77.20;;;;;;4996142;28;20223;-94
2023/05/21 02:57:39;;;;;;;6.85;6.15;;;13.50;78.40;;;;;;4974018;28;20279;-94
2023/05/21 03:00:09;;;;;;;8.15;6.38;;;13.40;77.80;;;;;;4996304;28;20196;-93
2023/05/21 03:02:38;;;;;;;11.40;6.70;;;13.30;78.70;;;;;;4985057;28;20202;-94
2023/05/21 03:05:09;;;;;;;11.20;6.28;;;13.20;79.50;;;;;;4997385;28;20219;-94
2023/05/21 03:07:38;;;;;;;9.65;7.00;;;13.20;79.80;;;;;;4985842;28;20301;-93
2023/05/21 03:10:08;;;;;;;7.90;6.68;;;13.10;80.90;;;;;;4980830;28;20260;-93
2023/05/21 03:15:23;;;;;;;9.23;6.47;;;13.10;82.70;;;;;;4990735;28;20290;-94
2023/05/21 03:17:52;;;;;;;9.65;6.20;;;13.00;81.60;;;;;;4997517;28;21089;-93
2023/05/21 03:20:28;;;;;;;7.57;6.78;;;13.00;81.40;;;;;;5003936;28;20199;-90
2023/05/21 03:22:57;;;;;;;7.03;6.32;;;13.00;82.40;;;;;;4975283;28;20223;-93
2023/05/21 03:25:24;;;;;;;9.43;6.93;;;13.00;81.60;;;;;;4987494;28;20681;-93
2023/05/21 03:27:53;;;;;;;7.75;6.60;;;13.00;81.70;;;;;;4982105;28;20223;-94
2023/05/21 03:30:20;;;;;;;8.30;6.68;;;13.00;81.70;;;;;;4989110;28;20211;-93
2023/05/21 03:32:59;;;;;;;8.18;6.93;;;13.00;82.00;;;;;;4994261;28;20200;-93
2023/05/21 03:35:38;;;;;;;7.30;6.55;;;13.00;82.40;;;;;;4989850;28;20287;-94
2023/05/21 03:38:05;;;;;;;7.95;7.05;;;13.00;83.50;;;;;;4980525;28;20231;-93
2023/05/21 03:40:36;;;;;;;7.53;6.72;;;13.00;84.00;;;;;;4994374;28;20203;-93
2023/05/21 03:43:25;;;;;;;9.82;6.75;;;12.90;83.90;;;;;;4996374;28;20204;-93
2023/05/21 03:45:52;;;;;;;9.95;7.53;;;12.90;84.00;;;;;;4994651;28;20206;-92
2023/05/21 03:48:19;;;;;;;8.43;6.95;;;12.80;84.40;;;;;;5013575;28;20200;-91
2023/05/21 03:50:45;;;;;;;8.70;7.00;;;12.90;85.00;;;;;;4995430;28;20200;-92
2023/05/21 03:53:13;;;;;;;11.13;7.20;;;12.90;85.10;;;;;;5011204;28;20716;-92
2023/05/21 03:55:40;;;;;;;8.07;7.22;;;12.90;85.40;;;;;;4997987;28;20211;-93
2023/05/21 03:58:08;;;;;;;9.27;6.60;;;12.90;85.70;;;;;;4974657;28;20665;-93
2023/05/21 04:00:40;;;;;;;7.93;7.13;;;12.80;85.40;;;;;;4977174;28;20199;-93
2023/05/21 04:03:10;;;;;;;7.40;6.70;;;12.80;85.60;;;;;;4992536;28;20253;-94
2023/05/21 04:05:38;;;;;;;9.45;7.05;;;12.70;87.10;;;;;;4994999;28;20286;-93
2023/05/21 04:08:09;;;;;;;7.72;6.72;;;12.80;86.00;;;;;;4986410;28;20249;-93
2023/05/21 04:10:36;;;;;;;8.90;6.95;;;12.80;85.60;;;;;;4975531;28;20271;-94
2023/05/21 04:13:03;;;;;;;8.85;7.18;;;12.90;85.50;;;;;;4982902;28;20652;-93
2023/05/21 04:15:31;;;;;;;8.82;7.10;;;12.90;85.60;;;;;;4976480;28;20743;-93
2023/05/21 04:17:59;;;;;;;11.10;7.55;;;12.90;86.10;;;;;;4994975;28;20278;-93
2023/05/21 04:20:26;;;;;;;8.13;6.85;;;12.90;86.40;;;;;;4994984;28;20208;-94
2023/05/21 04:22:54;;;;;;;8.20;6.95;;;12.80;86.00;;;;;;4993417;28;20203;-92
2023/05/21 04:25:22;;;;;;;7.95;7.10;;;13.00;86.30;;;;;;4995724;28;20207;-94
2023/05/21 04:27:49;;;;;;;7.80;6.82;;;13.10;87.30;;;;;;4994769;28;20367;-92
2023/05/21 04:30:22;;;;;;;8.27;7.25;;;13.10;86.70;;;;;;4966684;28;20214;-93
2023/05/21 04:33:03;;;;;;;8.40;7.25;;;13.20;86.90;;;;;;4977757;28;20202;-92
2023/05/21 04:41:13;;;;;;;7.63;6.82;;;13.40;86.30;;;;;;4990820;28;20207;-93
2023/05/21 04:43:46;;;;;;;7.72;7.00;;;13.50;86.20;;;;;;4993382;28;20200;-93
2023/05/21 04:46:14;;;;;;;8.80;7.45;;;13.60;85.00;;;;;;4991438;28;20625;-93
2023/05/21 04:48:41;;;;;;;7.68;6.85;;;13.60;84.20;;;;;;4994454;28;20301;-93
2023/05/21 04:53:53;;;;;;;10.07;7.25;;;13.60;83.90;;;;;;4990441;28;20197;-93
2023/05/21 04:56:25;;;;;;;8.30;7.50;;;13.60;83.90;;;;;;4969383;28;20250;-94
2023/05/21 04:59:01;;;;;;;8.38;7.28;;;13.60;84.40;;;;;;4993938;28;20208;-94
2023/05/21 05:01:31;;;;;;;8.95;7.18;;;13.70;85.10;;;;;;4993303;28;20230;-93
2023/05/21 05:03:58;;;;;;;7.88;6.78;;;13.80;83.40;;;;;;4973436;28;20203;-93
2023/05/21 05:09:08;;;;;;;8.40;6.70;;;14.00;80.40;;;;;;4991786;28;20680;-92
2023/05/21 05:11:35;;;;;;;8.65;6.72;;;14.10;80.60;;;;;;4960110;28;20195;-93
2023/05/21 05:14:02;;;;;;;8.43;7.25;;;14.20;78.70;;;;;;4983860;28;20228;-93
2023/05/21 05:16:29;;;;;;;8.60;7.72;;;14.20;79.50;;;;;;4983034;28;20223;-93
2023/05/21 05:18:57;;;;;;;9.48;7.30;;;14.30;79.70;;;;;;4989627;28;20298;-93
2023/05/21 05:21:27;;;;;;;9.02;7.03;;;14.40;80.00;;;;;;4989826;28;20219;-93
2023/05/21 05:23:53;;;;;;;9.70;6.85;;;14.50;78.70;;;;;;4989690;28;20204;-93
2023/05/21 05:26:21;;;;;;;7.82;7.03;;;14.60;79.70;;;;;;4993005;28;20203;-93
2023/05/21 05:28:48;;;;;;;12.40;7.63;;;14.70;79.30;;;;;;4961463;28;20298;-93
2023/05/21 05:31:15;;;;;;;9.35;7.53;;;14.70;82.60;;;;;;4989614;28;20204;-93
2023/05/21 05:33:44;;;;;;;8.10;6.97;;;14.70;78.30;;;;;;4971765;28;20587;-93
2023/05/21 05:36:10;;;;;;;7.70;6.75;;;14.80;76.10;;;;;;4960599;28;20211;-93
2023/05/21 05:41:19;;;;;;;9.75;7.10;;;15.10;69.00;;;;;;4988469;28;20204;-93
2023/05/21 05:43:46;;;;;;;10.02;7.10;;;15.20;66.70;;;;;;4987732;28;20641;-93
2023/05/21 05:46:13;;;;;;;6.88;6.25;;;15.40;68.60;;;;;;4978900;28;20207;-93
2023/05/21 05:48:40;;;;;;;8.13;6.70;;;15.50;69.10;;;;;;4991822;28;20310;-93
2023/05/21 05:51:11;;;;;;;7.30;6.60;;;15.60;67.80;;;;;;4989067;28;20203;-93
2023/05/21 05:54:02;;;;;;;8.23;7.03;;;15.80;68.30;;;;;;4977617;28;20201;-93
2023/05/21 05:56:29;;;;;;;8.27;6.85;;;15.90;66.40;;;;;;4995169;28;20653;-93
2023/05/21 05:58:56;;;;;;;8.40;6.82;;;16.00;65.30;;;;;;4959432;28;20267;-93
2023/05/21 06:01:25;;;;;;;6.95;6.22;;;16.10;67.30;;;;;;5000598;28;20286;-92
2023/05/21 06:03:52;;;;;;;7.15;6.40;;;16.20;67.40;;;;;;4974234;28;20285;-93
2023/05/21 06:06:22;;;;;;;8.27;6.70;;;16.30;64.00;;;;;;4980866;28;20197;-93
2023/05/21 06:08:49;;;;;;;10.23;6.90;;;16.30;62.60;;;;;;4976900;28;20224;-93
2023/05/21 06:11:17;;;;;;;7.20;6.50;;;16.40;57.70;;;;;;4974989;28;20251;-92
2023/05/21 06:13:44;;;;;;;11.30;7.45;;;16.50;58.20;;;;;;4995333;28;20203;-92
2023/05/21 06:16:11;;;;;;;6.90;6.20;;;16.70;58.50;;;;;;4989950;28;20226;-93
2023/05/21 06:18:38;;;;;;;10.77;6.10;;;16.90;53.10;;;;;;4975446;28;20216;-93
2023/05/21 06:21:05;;;;;;;8.60;6.25;;;17.10;52.20;;;;;;4978766;28;20200;-93
2023/05/21 06:23:34;;;;;;;6.85;6.15;;;17.30;48.80;;;;;;4987970;28;20206;-93
2023/05/21 06:26:01;;;;;;;7.97;6.13;;;17.50;46.60;;;;;;4988958;28;20201;-93
2023/05/21 06:31:13;;;;;;;8.57;6.55;;;17.90;45.50;;;;;;4987562;28;20239;-92
2023/05/21 06:33:41;;;;;;;6.65;5.88;;;18.00;46.10;;;;;;4988575;28;20204;-93
2023/05/21 06:36:08;;;;;;;7.25;6.22;;;18.10;41.40;;;;;;4991893;28;20196;-93
2023/05/21 06:38:35;;;;;;;6.25;5.65;;;18.40;39.00;;;;;;4992718;28;20214;-93
2023/05/21 06:41:02;;;;;;;7.10;5.93;;;18.50;38.30;;;;;;4971071;28;20200;-93
2023/05/21 06:43:31;;;;;;;7.05;5.93;;;18.60;37.70;;;;;;4988622;28;20192;-92
2023/05/21 06:45:58;;;;;;;7.25;6.10;;;18.80;36.20;;;;;;4972459;28;20208;-93
2023/05/21 06:48:26;;;;;;;8.98;5.70;;;18.90;35.70;;;;;;4998074;28;20766;-93
2023/05/21 06:50:52;;;;;;;6.60;5.50;;;19.00;33.00;;;;;;4973661;28;20303;-93
2023/05/21 06:53:20;;;;;;;6.15;5.55;;;18.90;33.90;;;;;;4994708;28;20204;-92
2023/05/21 06:55:52;;;;;;;6.07;5.47;;;19.20;32.00;;;;;;4982736;28;20211;-92
2023/05/21 06:58:20;;;;;;;6.45;5.85;;;19.20;31.40;;;;;;4972928;28;20198;-92
2023/05/21 07:00:49;;;;;;;6.95;5.80;;;19.00;31.20;;;;;;4996023;28;20204;-92
2023/05/21 07:03:16;;;;;;;6.13;5.53;;;18.70;31.00;;;;;;4989493;28;20196;-92
2023/05/21 07:05:43;;;;;;;10.77;5.85;;;18.80;31.00;;;;;;4961018;28;20196;-92
2023/05/21 07:08:10;;;;;;;7.75;5.65;;;18.60;30.90;;;;;;4978811;28;20216;-92
2023/05/21 07:10:37;;;;;;;6.50;5.90;;;18.50;30.80;;;;;;4978901;28;20219;-93
2023/05/21 07:13:04;;;;;;;6.32;5.55;;;18.60;30.90;;;;;;4981313;28;20572;-93
2023/05/21 07:15:31;;;;;;;6.20;5.60;;;18.50;30.80;;;;;;4979673;28;20209;-92
2023/05/21 07:17:59;;;;;;;6.40;5.75;;;18.70;31.00;;;;;;4964905;28;20591;-92
2023/05/21 07:20:26;;;;;;;7.57;5.63;;;18.80;31.30;;;;;;4985275;28;20201;-93
2023/05/21 07:22:54;;;;;;;7.15;5.65;;;19.00;31.20;;;;;;4990711;28;20210;-93
2023/05/21 07:25:21;;;;;;;5.85;5.25;;;19.20;29.30;;;;;;4974114;28;20682;-93
2023/05/21 07:27:48;;;;;;;5.80;5.25;;;19.30;29.50;;;;;;4983737;28;20218;-94
2023/05/21 07:30:14;;;;;;;9.20;5.50;;;19.40;28.70;;;;;;4975416;28;20220;-94
2023/05/21 07:32:41;;;;;;;6.25;5.65;;;19.40;27.10;;;;;;4971852;28;20217;-93
2023/05/21 07:35:10;;;;;;;6.97;5.38;;;19.40;27.70;;;;;;4993356;28;20667;-93
2023/05/21 07:37:38;;;;;;;6.97;5.38;;;19.30;28.40;;;;;;4993560;28;20572;-94
2023/05/21 07:40:07;;;;;;;6.82;5.70;;;19.40;27.20;;;;;;4998153;28;20200;-92
2023/05/21 07:42:34;;;;;;;7.35;5.53;;;19.50;28.30;;;;;;4994758;28;20287;-94
2023/05/21 07:45:02;;;;;;;8.15;5.57;;;19.30;28.70;;;;;;4979121;28;20200;-91
2023/05/21 07:47:29;;;;;;;6.85;5.80;;;19.30;29.10;;;;;;4990047;28;20204;-93
2023/05/21 07:49:57;;;;;;;7.05;5.78;;;19.40;29.70;;;;;;4976200;28;20250;-92
2023/05/21 07:52:25;;;;;;;5.97;5.38;;;19.50;27.90;;;;;;4994998;28;20671;-93
2023/05/21 07:54:52;;;;;;;6.50;5.75;;;19.60;27.70;;;;;;4989139;28;20204;-93
2023/05/21 07:57:20;;;;;;;6.85;5.80;;;19.50;28.40;;;;;;4970277;28;20868;-93
2023/05/21 07:59:47;;;;;;;9.55;5.60;;;19.50;29.60;;;;;;4989666;28;20243;-90
2023/05/21 08:02:14;;;;;;;6.03;5.43;;;19.60;27.70;;;;;;4982346;28;20718;-91
2023/05/21 08:04:41;;;;;;;6.35;5.75;;;19.70;28.20;;;;;;4992782;28;20204;-91
2023/05/21 08:07:09;;;;;;;6.43;5.82;;;19.70;27.70;;;;;;4988648;28;20207;-94
2023/05/21 08:09:39;;;;;;;7.13;5.43;;;19.70;29.90;;;;;;4974258;28;20216;-92
2023/05/21 08:12:07;;;;;;;7.22;5.75;;;19.90;28.30;;;;;;4987188;28;20696;-91
2023/05/21 08:14:42;;;;;;;6.45;5.60;;;20.00;28.40;;;;;;4987390;28;20645;-90
2023/05/21 08:19:50;;;;;;;8.18;5.97;;;20.20;28.80;;;;;;4990983;28;20287;-92
2023/05/21 08:22:18;;;;;;;5.82;5.30;;;20.40;28.20;;;;;;4977637;28;20195;-90
2023/05/21 08:27:27;;;;;;;9.73;5.78;;;20.50;29.00;;;;;;4977331;28;20211;-91
2023/05/21 08:29:54;;;;;;;6.32;5.72;;;20.40;30.20;;;;;;4996200;28;20223;-92
2023/05/21 08:38:23;;;;;;;6.40;5.72;;;20.40;28.90;;;;;;4917593;29;20686;-92
2023/05/21 08:48:06;;;;;;;7.10;5.78;;;21.00;29.00;;;;;;4966058;28;20675;-92
2023/05/21 08:50:33;;;;;;;7.65;6.05;;;21.40;27.60;;;;;;4963292;28;20224;-92
2023/05/21 08:53:00;;;;;;;6.88;5.85;;;21.70;28.30;;;;;;4976368;28;20573;-88
2023/05/21 08:56:21;;;;;;;6.72;6.00;;;21.90;27.30;;;;;;4969769;28;20196;-90
2023/05/21 08:58:49;;;;;;;7.75;6.13;;;21.80;27.50;;;;;;5005179;28;20306;-91
2023/05/21 09:14:57;;;;;;;8.48;6.93;;;23.30;24.60;;;;;;4981171;28;20207;-90
2023/05/21 09:20:11;;;;;;;6.85;6.25;;;23.50;24.40;;;;;;5040716;23;20237;-87
2023/05/21 09:29:20;;;;;;;6.78;6.10;;;24.30;22.20;;;;;;4978377;28;20693;-88
2023/05/21 09:31:47;;;;;;;7.78;6.25;;;24.90;21.70;;;;;;4987229;28;20233;-88
2023/05/21 09:34:14;;;;;;;6.60;5.97;;;25.30;20.40;;;;;;4998315;28;20846;-89
2023/05/21 09:36:43;;;;;;;8.80;6.75;;;26.00;18.40;;;;;;5017054;28;20586;-92
2023/05/21 09:39:15;;;;;;;7.28;6.45;;;26.50;17.50;;;;;;4997702;28;20194;-92
2023/05/21 09:41:42;;;;;;;6.72;6.13;;;26.50;17.80;;;;;;5023492;28;20191;-90
2023/05/21 09:44:11;;;;;;;7.00;6.28;;;26.70;19.40;;;;;;5024166;28;20205;-92
2023/05/21 09:46:39;;;;;;;6.75;6.15;;;26.80;17.70;;;;;;5012596;28;20570;-91
2023/05/21 09:49:06;;;;;;;6.78;6.13;;;26.90;15.10;;;;;;4998946;28;20198;-90
2023/05/21 09:51:33;;;;;;;7.07;6.28;;;27.10;16.50;;;;;;5010053;28;20206;-88
2023/05/21 09:54:01;;;;;;;7.97;6.00;;;27.40;15.30;;;;;;5004225;28;20218;-91
2023/05/21 09:56:29;;;;;;;7.25;6.20;;;27.70;15.50;;;;;;4993884;28;20230;-89
2023/05/21 09:58:59;;;;;;;8.32;5.93;;;28.60;12.80;;;;;;5017394;28;20286;-91
2023/05/21 10:01:27;;;;;;;6.72;5.72;;;28.50;8.70;;;;;;5021096;28;20218;-91
2023/05/21 10:03:56;;;;;;;6.53;5.93;;;29.10;7.60;;;;;;5021086;28;20267;-92
2023/05/21 10:06:26;;;;;;;9.02;6.35;;;29.50;8.70;;;;;;5026958;28;20209;-92
2023/05/21 10:08:56;;;;;;;6.43;5.82;;;29.70;6.90;;;;;;5027272;28;20213;-92
2023/05/21 10:11:27;;;;;;;6.18;5.68;;;29.20;7.20;;;;;;5020822;28;20596;-92
2023/05/21 10:13:57;;;;;;;8.30;5.90;;;28.40;7.50;;;;;;5001046;28;20207;-93
2023/05/21 10:16:25;;;;;;;6.60;6.10;;;28.40;9.00;;;;;;5020742;28;20196;-92
2023/05/21 10:18:54;;;;;;;7.88;6.30;;;28.80;9.00;;;;;;5002645;28;20309;-93
2023/05/21 10:21:22;;;;;;;6.75;6.15;;;28.60;8.10;;;;;;5019642;28;21280;-91
2023/05/21 10:23:50;;;;;;;6.80;6.07;;;29.10;9.80;;;;;;5024914;28;20198;-93
2023/05/21 10:26:20;;;;;;;7.07;6.43;;;30.20;6.70;;;;;;5023189;28;20194;-94
2023/05/21 10:28:49;;;;;;;6.70;6.03;;;30.20;8.00;;;;;;5023303;28;20199;-93
2023/05/21 10:31:16;;;;;;;6.85;6.25;;;30.60;6.50;;;;;;5010734;28;20230;-93
2023/05/21 10:33:43;;;;;;;6.88;6.28;;;31.10;4.70;;;;;;5024096;28;20180;-92
2023/05/21 10:36:12;;;;;;;6.45;5.90;;;30.30;7.10;;;;;;5028242;28;20302;-92
2023/05/21 10:38:39;;;;;;;6.65;6.07;;;30.40;6.50;;;;;;5011989;28;21111;-92
2023/05/21 10:41:07;;;;;;;8.20;6.20;;;30.00;5.60;;;;;;5025307;28;20209;-92
2023/05/21 10:43:45;;;;;;;7.38;6.05;;;28.40;7.40;;;;;;5025040;28;20213;-92
2023/05/21 10:46:39;;;;;;;8.68;6.15;;;28.00;8.20;;;;;;5021020;28;20205;-92
2023/05/21 10:49:30;;;;;;;7.03;6.25;;;28.10;10.00;;;;;;5023672;28;20195;-94
2023/05/21 10:52:06;;;;;;;7.45;6.22;;;27.70;9.10;;;;;;5003422;28;20207;-92
2023/05/21 10:54:56;;;;;;;6.35;5.75;;;27.80;9.60;;;;;;5026640;28;20250;-92
2023/05/21 10:57:43;;;;;;;6.65;5.63;;;27.50;8.70;;;;;;5002276;28;20206;-92
2023/05/21 11:00:12;;;;;;;15.20;8.27;;;27.30;11.00;;;;;;5021992;28;20199;-93
2023/05/21 11:02:40;;;;;;;6.55;5.78;;;27.10;10.60;;;;;;5024465;28;20191;-92
2023/05/21 11:05:08;;;;;;;6.47;5.93;;;26.80;9.80;;;;;;5001814;28;20201;-91
2023/05/21 11:13:23;;;;;;;7.22;5.90;;;26.50;11.40;;;;;;5007732;28;20714;-85
2023/05/21 11:16:14;;;;;;;7.57;5.65;;;27.20;10.30;;;;;;5010292;28;20199;-85
2023/05/21 11:19:08;;;;;;;6.45;5.88;;;27.70;8.30;;;;;;4994419;28;20229;-84
2023/05/21 11:21:41;;;;;;;6.38;5.78;;;28.00;8.20;;;;;;4989493;28;20191;-88
2023/05/21 11:27:32;;;;;;;6.03;5.43;;;28.30;9.50;;;;;;4988361;28;20225;-87
2023/05/21 11:33:18;;;;;;;9.02;7.10;;;28.40;8.70;;;;;;5007421;28;20209;-87
2023/05/21 11:36:02;;;;;;;10.65;6.30;;;28.20;9.40;;;;;;4987517;28;20258;-90
2023/05/21 11:41:10;;;;;;;7.70;5.80;;;27.80;9.40;;;;;;5013482;28;20241;-91
2023/05/21 11:43:40;;;;;;;7.10;5.88;;;28.10;7.60;;;;;;5006971;28;20203;-91
2023/05/21 11:48:54;;;;;;;6.20;5.60;;;27.20;9.40;;;;;;4995136;28;20204;-90
2023/05/21 11:51:22;;;;;;;6.68;5.60;;;27.20;9.00;;;;;;4997326;28;20223;-90
2023/05/21 11:53:51;;;;;;;7.35;5.80;;;27.30;8.80;;;;;;4998201;28;20681;-89
2023/05/21 11:56:19;;;;;;;7.65;5.40;;;27.40;7.90;;;;;;5000352;28;20210;-88
2023/05/21 11:58:46;;;;;;;7.88;5.95;;;27.40;7.50;;;;;;5018494;28;20198;-89
2023/05/21 12:01:22;;;;;;;7.68;5.90;;;27.20;6.90;;;;;;4994585;28;20245;-90
2023/05/21 12:03:49;;;;;;;6.20;5.60;;;27.30;8.10;;;;;;5015321;28;20213;-89
2023/05/21 12:06:16;;;;;;;6.40;5.80;;;27.50;8.80;;;;;;5023264;28;20198;-88
2023/05/21 12:08:56;;;;;;;6.80;5.68;;;27.40;9.60;;;;;;4992465;28;20556;-89
2023/05/21 12:11:25;;;;;;;6.60;6.00;;;26.90;8.10;;;;;;5023196;28;20237;-85
2023/05/21 12:13:52;;;;;;;7.97;5.68;;;27.10;9.10;;;;;;5000304;28;20591;-90
2023/05/21 12:16:21;;;;;;;7.47;6.05;;;27.20;10.20;;;;;;4999704;28;20199;-90
2023/05/21 12:19:00;;;;;;;6.57;5.95;;;26.40;8.90;;;;;;4993808;28;20231;-89
2023/05/21 12:21:28;;;;;;;6.55;5.93;;;26.10;9.70;;;;;;5022047;28;20242;-91
2023/05/21 12:23:56;;;;;;;6.70;6.05;;;26.20;10.50;;;;;;5031343;28;20223;-91
2023/05/21 12:26:25;;;;;;;6.75;5.97;;;26.50;9.90;;;;;;5015965;28;20198;-93
2023/05/21 12:28:52;;;;;;;6.47;5.47;;;26.50;10.10;;;;;;5030860;28;20229;-91
2023/05/21 12:31:20;;;;;;;8.40;5.43;;;26.70;8.50;;;;;;5031736;28;20210;-91
2023/05/21 12:33:48;;;;;;;7.80;6.10;;;26.90;8.30;;;;;;5024180;28;20213;-93
2023/05/21 12:41:45;;;;;;;8.18;6.72;;;27.50;7.60;;;;;;5019657;28;20195;-95
2023/05/21 12:44:12;;;;;;;7.82;6.10;;;27.60;9.20;;;;;;5019748;28;20194;-94
2023/05/21 12:46:39;;;;;;;8.15;6.43;;;27.60;7.30;;;;;;5013705;28;20202;-91
2023/05/21 12:49:06;;;;;;;7.38;5.65;;;27.60;8.90;;;;;;5029161;28;20247;-92
2023/05/21 12:51:39;;;;;;;7.65;5.22;;;27.70;5.80;;;;;;5013534;28;20227;-92
2023/05/21 12:54:21;;;;;;;5.80;5.20;;;27.80;5.00;;;;;;5019115;28;20221;-92
2023/05/21 12:56:48;;;;;;;7.18;5.85;;;27.90;6.00;;;;;;5031872;28;20194;-93
2023/05/21 12:59:15;;;;;;;5.90;5.28;;;28.00;7.40;;;;;;5030575;28;20259;-93
2023/05/21 13:01:42;;;;;;;9.02;5.50;;;28.10;7.10;;;;;;5013478;28;20200;-93
2023/05/21 13:04:09;;;;;;;6.13;5.55;;;28.20;5.40;;;;;;5010349;28;20199;-92
2023/05/21 13:06:45;;;;;;;6.20;5.60;;;28.30;6.20;;;;;;5011252;28;20202;-92
2023/05/21 13:15:07;;;;;;;5.70;5.20;;;28.20;6.10;;;;;;5024827;28;20210;-93
2023/05/21 13:17:34;;;;;;;7.57;5.57;;;27.90;5.30;;;;;;5007926;28;20215;-92
2023/05/21 13:20:12;;;;;;;6.82;5.60;;;27.60;5.80;;;;;;5022563;28;20207;-93
2023/05/21 13:30:45;;;;;;;10.38;6.07;;;27.40;5.80;;;;;;5027353;28;20229;-94
2023/05/21 13:33:12;;;;;;;8.07;5.72;;;27.40;7.50;;;;;;5022215;28;20207;-94
2023/05/21 13:35:44;;;;;;;6.50;5.90;;;27.50;7.60;;;;;;5012711;28;20286;-93
2023/05/21 13:38:11;;;;;;;6.63;5.55;;;27.60;7.70;;;;;;4998837;28;20203;-93
2023/05/21 13:44:15;;;;;;;6.63;5.97;;;27.40;7.80;;;;;;5023203;28;20178;-91
2023/05/21 13:46:42;;;;;;;6.30;5.70;;;27.20;6.60;;;;;;5009798;28;20277;-93
2023/05/21 13:49:09;;;;;;;6.43;5.07;;;27.30;6.90;;;;;;5002803;28;20217;-93
2023/05/21 13:51:36;;;;;;;7.10;5.78;;;27.20;7.00;;;;;;5000781;28;20214;-90
2023/05/21 13:54:03;;;;;;;7.82;5.45;;;27.10;7.40;;;;;;5028200;28;20237;-94
2023/05/21 14:01:52;;;;;;;7.90;5.80;;;26.90;8.00;;;;;;5021159;28;20563;-93
2023/05/21 14:06:55;;;;;;;7.97;5.95;;;26.50;9.80;;;;;;5135299;22;20267;-90
2023/05/21 14:09:25;;;;;;;5.97;5.47;;;26.50;9.90;;;;;;5045170;28;20193;-92
2023/05/21 14:11:53;;;;;;;6.55;5.95;;;26.40;9.50;;;;;;5034120;28;20248;-90
2023/05/21 14:14:22;;;;;;;6.50;5.05;;;26.30;10.70;;;;;;5037157;28;20203;-91
2023/05/21 14:16:50;;;;;;;6.60;5.65;;;26.30;9.70;;;;;;5018789;28;20199;-88
2023/05/21 14:19:18;;;;;;;9.52;6.18;;;26.20;10.40;;;;;;5009947;28;20222;-88
2023/05/21 14:21:45;;;;;;;7.20;6.18;;;26.30;11.40;;;;;;5011200;28;20260;-90
2023/05/21 14:24:12;;;;;;;6.07;5.50;;;26.30;11.90;;;;;;5004836;28;20212;-90
2023/05/21 14:29:26;;;;;;;8.32;5.80;;;26.30;11.40;;;;;;5014408;28;20191;-91
2023/05/21 14:31:53;;;;;;;7.75;5.43;;;26.40;11.80;;;;;;4996128;28;20215;-89
2023/05/21 14:34:20;;;;;;;6.35;5.40;;;26.50;10.80;;;;;;5011304;28;20194;-89
2023/05/21 14:36:47;;;;;;;5.95;5.40;;;26.70;10.90;;;;;;5009824;28;20667;-89
2023/05/21 14:39:14;;;;;;;6.30;5.38;;;26.60;9.30;;;;;;5000731;28;20209;-91
2023/05/21 14:41:41;;;;;;;8.18;5.57;;;26.70;9.40;;;;;;4969665;28;20201;-92
2023/05/21 14:44:08;;;;;;;6.65;5.53;;;26.60;9.50;;;;;;5016803;28;20420;-93
2023/05/21 14:46:36;;;;;;;6.65;5.25;;;26.70;9.30;;;;;;4980549;28;20203;-91
2023/05/21 14:49:04;;;;;;;5.93;5.13;;;26.70;9.30;;;;;;5012267;28;20210;-92
2023/05/21 14:51:32;;;;;;;6.68;5.10;;;26.70;9.20;;;;;;4998115;28;20227;-91
2023/05/21 14:53:59;;;;;;;7.63;5.25;;;26.80;9.20;;;;;;4981410;28;20204;-91
2023/05/21 14:56:27;;;;;;;6.88;5.55;;;26.70;9.10;;;;;;4987607;28;20202;-90
2023/05/21 14:58:53;;;;;;;7.38;5.40;;;26.50;9.30;;;;;;5002629;28;20209;-92
2023/05/21 15:01:20;;;;;;;5.93;5.43;;;26.40;10.20;;;;;;5017765;28;20574;-91
2023/05/21 15:03:49;;;;;;;7.00;5.35;;;26.20;10.70;;;;;;5019666;28;20210;-92
2023/05/21 15:06:17;;;;;;;6.78;5.30;;;26.20;10.30;;;;;;4999838;28;20231;-93
2023/05/21 15:08:43;;;;;;;7.43;5.50;;;26.10;10.10;;;;;;4991340;28;20203;-92
2023/05/21 15:11:10;;;;;;;5.95;5.35;;;26.00;9.70;;;;;;5010991;28;20219;-88
2023/05/21 15:13:38;;;;;;;5.72;4.72;;;26.00;9.90;;;;;;5011611;28;20214;-86
2023/05/21 15:16:06;;;;;;;5.90;5.30;;;26.00;10.60;;;;;;5009411;28;20257;-88
2023/05/21 15:18:33;;;;;;;5.82;5.30;;;26.00;10.30;;;;;;4993222;28;20222;-86
2023/05/21 15:21:03;;;;;;;8.43;5.60;;;26.00;10.30;;;;;;4982760;28;20298;-88
2023/05/21 15:23:31;;;;;;;5.70;5.15;;;26.00;10.00;;;;;;4988118;28;20195;-87
2023/05/21 15:25:57;;;;;;;6.43;5.25;;;25.80;10.40;;;;;;5011924;28;20644;-88
2023/05/21 15:28:24;;;;;;;7.15;4.72;;;25.80;10.00;;;;;;5004855;28;20204;-88
2023/05/21 15:30:51;;;;;;;5.95;5.03;;;25.70;10.30;;;;;;5009450;28;20786;-87
2023/05/21 15:33:18;;;;;;;6.70;5.13;;;25.60;10.20;;;;;;4993349;28;20202;-87
2023/05/21 15:35:45;;;;;;;5.85;5.25;;;25.60;10.70;;;;;;4986460;28;20196;-88